createdAt,value
2023-02-21T00:04:04.977Z,6.60
2023-02-21T00:09:25.636Z,6.50
2023-02-21T00:14:46.216Z,6.40
2023-02-21T00:20:06.697Z,6.60
2023-02-21T00:25:27.237Z,6.70
2023-02-21T00:30:48.211Z,6.80
2023-02-21T00:36:08.796Z,6.80
2023-02-21T00:41:29.494Z,6.80
2023-02-21T00:46:50.054Z,6.70
2023-02-21T00:52:11.228Z,6.70
2023-02-21T00:57:32.191Z,6.60
2023-02-21T01:02:52.721Z,6.60
2023-02-21T01:08:13.327Z,6.60
2023-02-21T01:13:34.714Z,6.70
2023-02-21T01:18:55.333Z,6.70
2023-02-21T01:24:16.224Z,6.60
2023-02-21T01:29:36.800Z,6.40
2023-02-21T01:34:58.767Z,6.20
2023-02-21T01:40:19.146Z,5.90
2023-02-21T01:45:39.606Z,5.80
2023-02-21T01:51:00.006Z,5.60
2023-02-21T01:56:21.834Z,5.60
2023-02-21T02:01:54.150Z,5.40
2023-02-21T02:07:15.179Z,5.40
2023-02-21T02:12:33.708Z,5.40
2023-02-21T02:17:52.972Z,5.60
2023-02-21T02:23:07.060Z,5.70
2023-02-21T02:28:26.714Z,5.80
2023-02-21T02:33:47.581Z,5.90
2023-02-21T02:39:15.028Z,5.90
2023-02-21T02:44:52.116Z,5.80
2023-02-21T02:49:58.437Z,5.80
2023-02-21T02:55:04.761Z,5.60
2023-02-21T03:00:10.845Z,5.50
2023-02-21T03:05:50.540Z,5.40
2023-02-21T03:11:01.493Z,5.20
2023-02-21T03:16:34.408Z,5.30
2023-02-21T03:21:45.016Z,5.40
2023-02-21T03:26:52.019Z,5.40
2023-02-21T03:32:24.364Z,5.30
2023-02-21T03:37:42.677Z,5.10
2023-02-21T03:42:45.685Z,5.20
2023-02-21T03:47:50.165Z,5.20
2023-02-21T03:52:54.268Z,5.20
2023-02-21T03:57:57.832Z,5.30
2023-02-21T04:03:00.471Z,5.20
2023-02-21T04:08:28.765Z,5.20
2023-02-21T04:13:31.217Z,5.20
2023-02-21T04:18:37.297Z,5.20
2023-02-21T04:23:41.116Z,5.20
2023-02-21T04:28:43.382Z,5.20
2023-02-21T04:33:45.653Z,5.10
2023-02-21T04:38:51.784Z,5.00
2023-02-21T04:43:53.987Z,4.80
2023-02-21T04:48:56.336Z,4.70
2023-02-21T04:53:58.473Z,4.50
2023-02-21T04:59:00.637Z,4.50
2023-02-21T05:04:03.624Z,4.40
2023-02-21T05:09:05.730Z,4.40
2023-02-21T05:14:07.786Z,4.40
2023-02-21T05:19:10.212Z,4.40
2023-02-21T05:24:12.466Z,4.30
2023-02-21T05:29:15.382Z,4.30
2023-02-21T05:34:19.637Z,4.30
2023-02-21T05:39:21.782Z,4.30
2023-02-21T05:44:23.888Z,4.40
2023-02-21T05:49:27.993Z,4.40
2023-02-21T05:54:30.147Z,4.20
2023-02-21T05:59:32.354Z,4.20
2023-02-21T06:04:34.439Z,4.20
2023-02-21T06:09:36.505Z,4.10
2023-02-21T06:14:38.622Z,4.10
2023-02-21T06:19:40.697Z,4.20
2023-02-21T06:24:42.892Z,4.00
2023-02-21T06:29:45.008Z,3.80
2023-02-21T06:34:47.571Z,3.60
2023-02-21T06:39:49.673Z,3.50
2023-02-21T06:44:51.820Z,3.40
2023-02-21T06:49:54.072Z,3.30
2023-02-21T06:54:56.306Z,3.30
2023-02-21T06:59:58.450Z,3.30
2023-02-21T07:05:00.704Z,3.40
2023-02-21T07:10:02.927Z,3.30
2023-02-21T07:15:05.581Z,3.30
2023-02-21T07:20:08.071Z,3.50
2023-02-21T07:25:15.336Z,3.60
2023-02-21T07:30:17.677Z,3.60
2023-02-21T07:35:19.867Z,3.60
2023-02-21T07:40:22.019Z,3.60
2023-02-21T07:45:24.171Z,3.40
2023-02-21T07:50:26.369Z,3.40
2023-02-21T07:55:28.472Z,3.40
2023-02-21T08:00:31.240Z,3.40
2023-02-21T08:05:33.674Z,3.60
2023-02-21T08:10:36.339Z,3.80
2023-02-21T08:15:38.467Z,4.00
2023-02-21T08:20:40.567Z,4.10
2023-02-21T08:25:42.715Z,4.20
2023-02-21T08:30:44.883Z,4.30
2023-02-21T08:35:47.245Z,4.40
2023-02-21T08:40:51.440Z,4.50
2023-02-21T08:45:53.581Z,4.70
2023-02-21T08:50:55.743Z,4.70
2023-02-21T08:55:57.804Z,4.70
2023-02-21T09:00:59.844Z,4.80
2023-02-21T09:06:03.713Z,5.00
2023-02-21T09:11:06.059Z,5.00
2023-02-21T09:16:08.186Z,5.10
2023-02-21T09:21:10.281Z,5.30
2023-02-21T09:26:12.479Z,5.40
2023-02-21T09:31:14.870Z,5.40
2023-02-21T09:36:23.634Z,5.50
2023-02-21T09:41:25.763Z,5.60
2023-02-21T09:46:44.062Z,5.80
2023-02-21T09:51:46.586Z,5.90
2023-02-21T09:56:48.918Z,6.00
2023-02-21T10:02:02.815Z,6.10
2023-02-21T10:07:32.163Z,6.10
2023-02-21T10:13:00.241Z,6.40
2023-02-21T10:18:48.645Z,6.80
2023-02-21T10:23:54.673Z,7.00
2023-02-21T10:28:58.370Z,7.10
2023-02-21T10:34:00.700Z,7.20
2023-02-21T10:39:23.639Z,7.30
2023-02-21T10:44:31.938Z,7.40
2023-02-21T10:49:46.453Z,7.50
2023-02-21T10:55:32.235Z,7.60
2023-02-21T11:00:39.557Z,7.50
2023-02-21T11:05:57.842Z,7.40
2023-02-21T11:10:59.973Z,7.50
2023-02-21T11:16:22.238Z,7.40
2023-02-21T11:21:24.439Z,7.40
2023-02-21T11:26:30.299Z,7.60
2023-02-21T11:31:32.956Z,7.90
2023-02-21T11:36:40.845Z,8.10
2023-02-21T11:41:51.649Z,8.30
2023-02-21T11:47:34.597Z,8.40
2023-02-21T11:52:43.056Z,8.20
2023-02-21T11:57:53.250Z,8.50
2023-02-21T12:03:17.949Z,8.70
2023-02-21T12:08:38.668Z,8.90
2023-02-21T12:13:49.960Z,9.00
2023-02-21T12:19:19.520Z,9.10
2023-02-21T12:24:41.784Z,9.30
2023-02-21T12:30:05.287Z,9.40
2023-02-21T12:35:51.150Z,9.60
2023-02-21T12:41:01.822Z,9.90
2023-02-21T12:46:16.906Z,10.30
2023-02-21T12:51:22.546Z,10.50
2023-02-21T12:56:35.619Z,10.50
2023-02-21T13:01:43.234Z,10.50
2023-02-21T13:06:49.009Z,10.70
2023-02-21T13:12:19.791Z,10.70
2023-02-21T13:17:22.265Z,10.80
2023-02-21T13:22:43.437Z,10.80
2023-02-21T13:28:21.014Z,10.80
2023-02-21T13:33:35.502Z,11.00
2023-02-21T13:38:37.807Z,11.10
2023-02-21T13:43:49.312Z,11.10
2023-02-21T13:49:28.765Z,11.20
2023-02-21T13:54:30.913Z,11.60
2023-02-21T13:59:35.604Z,11.80
2023-02-21T14:05:10.004Z,11.90
2023-02-21T14:10:40.872Z,11.90
2023-02-21T14:15:49.248Z,11.70
2023-02-21T14:20:55.301Z,11.80
2023-02-21T14:26:00.346Z,11.90
2023-02-21T14:31:03.165Z,11.90
2023-02-21T14:36:08.784Z,11.80
2023-02-21T14:41:20.725Z,11.80
2023-02-21T14:46:51.433Z,11.90
2023-02-21T14:52:26.041Z,11.70
2023-02-21T14:57:49.112Z,11.60
2023-02-21T15:03:03.596Z,11.60
2023-02-21T15:08:13.399Z,11.70
2023-02-21T15:13:25.253Z,11.60
2023-02-21T15:18:38.777Z,11.60
2023-02-21T15:23:44.051Z,11.50
2023-02-21T15:28:46.541Z,11.40
2023-02-21T15:33:52.994Z,11.30
2023-02-21T15:39:30.275Z,11.10
2023-02-21T15:44:39.875Z,11.00
2023-02-21T15:50:01.870Z,10.80
2023-02-21T15:55:36.415Z,10.70
2023-02-21T16:00:41.245Z,10.60
2023-02-21T16:05:43.392Z,10.50
2023-02-21T16:10:45.959Z,10.30
2023-02-21T16:15:49.025Z,10.10
2023-02-21T16:21:00.374Z,10.00
2023-02-21T16:26:23.884Z,10.00
2023-02-21T16:31:30.119Z,9.90
2023-02-21T16:36:32.941Z,9.80
2023-02-21T16:41:35.008Z,9.80
2023-02-21T16:46:37.148Z,9.80
2023-02-21T16:51:43.610Z,9.80
2023-02-21T16:56:48.293Z,9.80
2023-02-21T17:01:50.730Z,9.60
2023-02-21T17:07:00.552Z,9.80
2023-02-21T17:12:02.878Z,9.90
2023-02-21T17:17:05.012Z,9.80
2023-02-21T17:22:07.149Z,9.90
2023-02-21T17:27:09.593Z,9.90
2023-02-21T17:32:11.734Z,9.80
2023-02-21T17:37:13.967Z,9.80
2023-02-21T17:42:16.089Z,9.80
2023-02-21T17:47:22.939Z,9.80
2023-02-21T17:52:25.511Z,9.80
2023-02-21T17:57:27.709Z,9.70
2023-02-21T18:02:29.996Z,9.70
2023-02-21T18:07:32.878Z,9.70
2023-02-21T18:12:35.269Z,9.70
2023-02-21T18:17:38.496Z,9.70
2023-02-21T18:22:40.668Z,9.70
2023-02-21T18:27:43.028Z,9.70
2023-02-21T18:32:46.255Z,9.70
2023-02-21T18:37:48.788Z,9.70
2023-02-21T18:42:50.840Z,9.60
2023-02-21T18:47:52.935Z,9.60
2023-02-21T18:52:55.071Z,9.50
2023-02-21T18:57:57.267Z,9.50
2023-02-21T19:03:00.139Z,9.50
2023-02-21T19:08:02.508Z,9.50
2023-02-21T19:13:05.456Z,9.40
2023-02-21T19:18:07.681Z,9.40
2023-02-21T19:23:10.213Z,9.40
2023-02-21T19:28:12.398Z,9.40
2023-02-21T19:33:14.522Z,9.30
2023-02-21T19:38:16.884Z,9.30
2023-02-21T19:43:19.461Z,9.20
2023-02-21T19:48:22.691Z,9.20
2023-02-21T19:53:25.060Z,9.10
2023-02-21T19:58:27.203Z,9.20
2023-02-21T20:03:29.529Z,9.20
2023-02-21T20:08:33.927Z,9.20
2023-02-21T20:13:37.096Z,9.10
2023-02-21T20:18:39.212Z,9.10
2023-02-21T20:23:41.379Z,9.10
2023-02-21T20:28:43.529Z,9.10
2023-02-21T20:33:47.179Z,9.10
2023-02-21T20:38:49.223Z,9.10
2023-02-21T20:43:51.364Z,9.10
2023-02-21T20:48:53.778Z,9.20
2023-02-21T20:53:55.956Z,9.20
2023-02-21T20:58:58.430Z,9.20
2023-02-21T21:04:02.310Z,9.20
2023-02-21T21:09:04.734Z,9.20
2023-02-21T21:14:06.853Z,9.30
2023-02-21T21:19:09.142Z,9.20
2023-02-21T21:24:11.748Z,9.20
2023-02-21T21:29:15.636Z,9.20
2023-02-21T21:34:23.186Z,9.20
2023-02-21T21:39:26.110Z,9.20
2023-02-21T21:44:28.910Z,9.10
2023-02-21T21:49:32.681Z,9.10
2023-02-21T21:54:36.322Z,9.10
2023-02-21T21:59:41.039Z,9.10
2023-02-21T22:04:43.645Z,9.10
2023-02-21T22:09:47.423Z,9.10
2023-02-21T22:14:50.073Z,9.10
2023-02-21T22:19:52.527Z,9.10
2023-02-21T22:24:54.684Z,9.00
2023-02-21T22:29:57.703Z,9.00
2023-02-21T22:34:59.845Z,9.00
2023-02-21T22:40:02.091Z,8.90
2023-02-21T22:45:04.713Z,8.90
2023-02-21T22:50:07.160Z,8.90
2023-02-21T22:55:09.383Z,8.90
2023-02-21T23:00:24.466Z,8.90
2023-02-21T23:05:27.204Z,8.90
2023-02-21T23:10:29.351Z,8.80
2023-02-21T23:15:31.483Z,8.80
2023-02-21T23:20:33.881Z,8.80
2023-02-21T23:25:36.101Z,8.80
2023-02-21T23:30:42.948Z,8.90
2023-02-21T23:35:49.433Z,8.80
2023-02-21T23:40:56.505Z,8.80
2023-02-21T23:46:00.393Z,8.80
2023-02-21T23:51:02.622Z,8.80
2023-02-21T23:56:05.962Z,8.90
